createdAt,value
2022-08-05T00:02:07.886Z,51.72
2022-08-05T00:08:54.579Z,51.66
2022-08-05T00:15:57.694Z,51.82
2022-08-05T00:22:41.483Z,52.68
2022-08-05T00:44:04.183Z,52.58
2022-08-05T00:57:31.829Z,53.12
2022-08-05T01:04:26.760Z,53.40
2022-08-05T01:18:48.172Z,53.75
2022-08-05T07:21:25.595Z,50.77
2022-08-05T08:08:06.804Z,49.98
2022-08-05T08:14:32.899Z,48.73
2022-08-05T10:09:02.025Z,41.22
2022-08-05T10:15:54.592Z,41.66
2022-08-05T10:22:40.525Z,39.34
2022-08-05T10:30:06.868Z,39.15
2022-08-05T10:36:35.090Z,38.58
2022-08-05T10:43:17.565Z,38.55
2022-08-05T10:50:32.473Z,36.81
2022-08-05T10:57:19.111Z,36.05
2022-08-05T11:11:57.527Z,36.21
2022-08-05T11:18:06.875Z,34.78
2022-08-05T11:24:30.383Z,34.73
2022-08-05T11:54:40.709Z,34.77
2022-08-05T12:01:26.426Z,33.40
2022-08-05T12:08:11.853Z,34.80
2022-08-05T12:15:05.871Z,34.31
2022-08-05T12:22:04.039Z,34.10
2022-08-05T12:34:23.794Z,33.25
2022-08-05T12:53:43.408Z,32.06
2022-08-05T13:02:00.626Z,31.50
2022-08-05T13:06:50.754Z,30.91
2022-08-05T13:21:21.833Z,29.61
2022-08-05T13:28:08.370Z,28.86
2022-08-05T13:54:15.283Z,27.56
2022-08-05T14:01:03.028Z,27.68
2022-08-05T14:07:25.559Z,28.15
2022-08-05T14:14:14.904Z,27.39
2022-08-05T14:54:28.681Z,27.47
2022-08-05T14:59:51.479Z,26.77
2022-08-05T15:06:16.000Z,26.18
2022-08-05T15:12:59.701Z,25.91
2022-08-05T15:18:58.163Z,25.99
2022-08-05T15:24:49.355Z,25.46
2022-08-05T15:31:11.931Z,25.26
2022-08-05T15:37:19.390Z,25.59
2022-08-05T15:44:05.300Z,24.73
2022-08-05T15:50:31.502Z,24.74
2022-08-05T15:56:15.154Z,24.59
2022-08-05T16:03:05.231Z,24.40
2022-08-05T16:09:46.906Z,24.21
2022-08-05T16:16:55.980Z,23.98
2022-08-05T16:23:53.909Z,24.41
2022-08-05T16:38:03.627Z,23.70
2022-08-05T16:44:54.303Z,23.06
2022-08-05T16:51:51.070Z,22.09
2022-08-05T16:59:10.365Z,21.71
2022-08-05T17:05:54.236Z,21.30
2022-08-05T17:12:51.699Z,21.09
2022-08-05T17:19:09.690Z,20.81
2022-08-05T17:25:40.185Z,20.64
2022-08-05T17:32:17.006Z,20.37
2022-08-05T17:38:23.059Z,20.04
2022-08-05T17:45:10.108Z,20.92
2022-08-05T17:58:13.059Z,24.09
2022-08-05T18:04:07.807Z,26.48
2022-08-05T18:34:58.711Z,36.85
2022-08-05T19:06:11.443Z,45.62
2022-08-05T19:13:12.283Z,47.27
2022-08-05T19:20:11.832Z,48.07
2022-08-05T19:27:12.087Z,48.69
2022-08-05T19:34:10.617Z,51.08
2022-08-05T19:41:06.988Z,51.11
2022-08-05T20:00:28.146Z,50.95
2022-08-05T20:03:38.041Z,50.52
2022-08-05T20:07:59.435Z,56.22
2022-08-05T20:13:54.715Z,56.73
2022-08-05T20:26:40.000Z,56.38
2022-08-05T20:33:27.783Z,55.86
2022-08-05T20:40:34.664Z,55.37
2022-08-05T20:47:32.198Z,55.98
2022-08-05T21:00:21.094Z,56.74
2022-08-05T21:49:58.745Z,54.84
2022-08-05T22:02:08.981Z,55.23
2022-08-05T22:07:40.392Z,55.24
2022-08-05T22:14:34.515Z,55.77
2022-08-05T22:20:03.266Z,55.86
2022-08-05T22:26:11.398Z,55.81
2022-08-05T22:31:44.477Z,55.71
2022-08-05T22:58:43.726Z,55.76
2022-08-05T23:18:03.609Z,55.48
2022-08-05T23:23:53.805Z,55.54
2022-08-05T23:29:17.796Z,55.78
2022-08-05T23:34:41.193Z,55.86
2022-08-05T23:40:07.825Z,55.71
2022-08-05T23:45:31.286Z,56.15
2022-08-05T23:50:55.172Z,56.02
2022-08-05T23:56:20.021Z,56.71
